aviador You're here:

GEML Decoded Metar

MELILLA in SPAIN
Report Time2018-07-22 14:00:00
UTC Time2018-07-22 14:29:56
Flight Rules vfr VFR
Wind020° at 07 kt
W.Decomp.*RWY 33: 4.4 kt HW 5.4 kt RCW
W.Rank020° ranks 19
Current wind is above 020° avg. (5.7)
Visibility9999 m
Phenomena:N/A
Clouds:N/A
Expected CloudBase > 8,400 ft AGL from Temp-Dew spread
CeilingNone
Temp29°C (ISA +14)
Dew Point08°C (27% RH)
Heat Index27.7°C
AAT26.0°C
QNH1013 hPa
Density Alt1,978 ft
Elevation180 ft
Report Wrong Elevation
Raw Report
GEML 221400Z 02007KT 340V050 CAVOK 29/08 Q1013=

Extra information for GEML:More info

Metar Taf Metar & Taf Last 4 Metars F.Rules Stats Wind Profile Meteogram Temp Stats Airport Information Weather charts Add Link Nearby VenuesMetar ALERT Operation Metar Decoded Social comments